PWSweather.com
Personal Weather Stations
Station Observations
SEVNO44
Sevno, PrimskovoSI 1276

SevnoPrimskovoSI 1276

Lat: 45.9796285, Lon: 14.924044999999978

Elevation: 1706.0368

Station Type: WS-2307

Latest ConditionsUpdated 4:35:00 AM GMT+01:01 Tuesday, Nov 13, 2018
Currently Today's Max Today's Min Today's Average
Temperature 52.7°F11.5°C 53.8°F12.1°C 52.5°F11.4°C 53.0°F11.7°C
Dew Point 48.9°F9.4°C 49.2°F9.6°C 48.2°F9.0°C 48.7°F9.3°C
Winds 5.7 mph W9.2 kmh W 8.4 mph -13.5 kmh - - 5.5 mph 8.9 kmh
Wind Gusts 11.9 mph19.2 kmh 17.2 mph27.7 kmh - -
Humidity 87% 87% 83% 85%
Pressure 30.23 in1023.7 mb 30.25 in1024.4 mb 30.23 in1023.7 mb -
Hour Temp Dew Point Humidity Winds Wind Gusts Pressure Precip Precip Rate Daily Precip Total
04:35 AM 52.7°F11.5°C 48.9°F9.4°C 87% 5.7 mph W9.2 kmh W 11.9 mph19.2 kmh 30.23 in1023.7 mb 0.00 in0.0 mm 0.00 in0.0 mm 0.00 in0.0 mm
04:30 AM 52.7°F11.5°C 48.9°F9.4°C 87% 5.2 mph W8.4 kmh W 11.9 mph19.2 kmh 30.23 in1023.7 mb 0.00 in0.0 mm 0.00 in0.0 mm 0.00 in0.0 mm
04:25 AM 52.7°F11.5°C 48.9°F9.4°C 87% 5.6 mph W9.0 kmh W 11.9 mph19.2 kmh 30.23 in1023.7 mb 0.00 in0.0 mm 0.00 in0.0 mm 0.00 in0.0 mm
04:20 AM 52.5°F11.4°C 48.8°F9.3°C 87% 5.7 mph W9.2 kmh W 13.0 mph20.9 kmh 30.23 in1023.7 mb 0.00 in0.0 mm 0.00 in0.0 mm 0.00 in0.0 mm
04:15 AM 52.5°F11.4°C 48.8°F9.3°C 87% 6.2 mph W10.0 kmh W 15.2 mph24.5 kmh 30.23 in1023.7 mb 0.00 in0.0 mm 0.00 in0.0 mm 0.00 in0.0 mm
04:10 AM 52.5°F11.4°C 48.8°F9.3°C 87% 6.1 mph WSW9.8 kmh WSW 15.2 mph24.5 kmh 30.23 in1023.7 mb 0.00 in0.0 mm 0.00 in0.0 mm 0.00 in0.0 mm
04:05 AM 52.7°F11.5°C 48.9°F9.4°C 87% 5.4 mph WSW8.7 kmh WSW 11.2 mph18.0 kmh 30.23 in1023.7 mb 0.00 in0.0 mm 0.00 in0.0 mm 0.00 in0.0 mm
04:01 AM 52.9°F11.6°C 48.8°F9.3°C 86% 3.4 mph W5.5 kmh W 3.4 mph5.5 kmh 30.24 in1024.0 mb 0.00 in0.0 mm 0.00 in0.0 mm 0.00 in0.0 mm
04:00 AM 52.5°F11.4°C 48.8°F9.3°C 87% 6.2 mph W10.0 kmh W 14.3 mph23.0 kmh 30.23 in1023.7 mb 0.00 in0.0 mm 0.00 in0.0 mm 0.00 in0.0 mm
03:55 AM 52.5°F11.4°C 48.8°F9.3°C 87% 5.4 mph W8.7 kmh W 11.4 mph18.3 kmh 30.23 in1023.7 mb 0.00 in0.0 mm 0.00 in0.0 mm 0.00 in0.0 mm
03:50 AM 52.7°F11.5°C 48.9°F9.4°C 87% 5.2 mph WSW8.4 kmh WSW 11.4 mph18.3 kmh 30.23 in1023.7 mb 0.00 in0.0 mm 0.00 in0.0 mm 0.00 in0.0 mm
03:45 AM 52.7°F11.5°C 48.9°F9.4°C 87% 4.5 mph WSW7.2 kmh WSW 8.9 mph14.3 kmh 30.23 in1023.7 mb 0.00 in0.0 mm 0.00 in0.0 mm 0.00 in0.0 mm
03:40 AM 52.7°F11.5°C 48.9°F9.4°C 87% 4.0 mph WSW6.4 kmh WSW 7.4 mph11.9 kmh 30.23 in1023.7 mb 0.00 in0.0 mm 0.00 in0.0 mm 0.00 in0.0 mm
03:35 AM 52.9°F11.6°C 48.8°F9.3°C 86% 3.8 mph W6.1 kmh W 7.6 mph12.2 kmh 30.23 in1023.7 mb 0.00 in0.0 mm 0.00 in0.0 mm 0.00 in0.0 mm
03:30 AM 52.9°F11.6°C 48.8°F9.3°C 86% 4.3 mph W6.9 kmh W 11.2 mph18.0 kmh 30.24 in1024.0 mb 0.00 in0.0 mm 0.00 in0.0 mm 0.00 in0.0 mm
03:25 AM 52.9°F11.6°C 48.8°F9.3°C 86% 4.4 mph WSW7.1 kmh WSW 11.2 mph18.0 kmh 30.24 in1024.0 mb 0.00 in0.0 mm 0.00 in0.0 mm 0.00 in0.0 mm
03:20 AM 52.9°F11.6°C 48.8°F9.3°C 86% 4.5 mph WSW7.2 kmh WSW 9.2 mph14.8 kmh 30.24 in1024.0 mb 0.00 in0.0 mm 0.00 in0.0 mm 0.00 in0.0 mm
03:15 AM 53.1°F11.7°C 49.0°F9.4°C 86% 5.5 mph WSW8.9 kmh WSW 11.0 mph17.7 kmh 30.24 in1024.0 mb 0.00 in0.0 mm 0.00 in0.0 mm 0.00 in0.0 mm
03:10 AM 52.9°F11.6°C 48.8°F9.3°C 86% 5.5 mph WSW8.9 kmh WSW 11.0 mph17.7 kmh 30.24 in1024.0 mb 0.00 in0.0 mm 0.00 in0.0 mm 0.00 in0.0 mm
03:05 AM 52.9°F11.6°C 48.8°F9.3°C 86% 5.3 mph WSW8.5 kmh WSW 10.6 mph17.1 kmh 30.24 in1024.0 mb 0.00 in0.0 mm 0.00 in0.0 mm 0.00 in0.0 mm
03:01 AM 53.2°F11.8°C 48.8°F9.3°C 85% 7.4 mph WNW11.9 kmh WNW 7.4 mph11.9 kmh 30.24 in1024.0 mb 0.00 in0.0 mm 0.00 in0.0 mm 0.00 in0.0 mm
03:00 AM 52.9°F11.6°C 48.8°F9.3°C 86% 6.0 mph WSW9.7 kmh WSW 15.9 mph25.6 kmh 30.24 in1024.0 mb 0.00 in0.0 mm 0.00 in0.0 mm 0.00 in0.0 mm
02:55 AM 52.9°F11.6°C 48.8°F9.3°C 86% 5.1 mph WSW8.2 kmh WSW 10.5 mph16.9 kmh 30.24 in1024.0 mb 0.00 in0.0 mm 0.00 in0.0 mm 0.00 in0.0 mm
02:50 AM 52.9°F11.6°C 48.8°F9.3°C 86% 4.6 mph WSW7.4 kmh WSW 10.5 mph16.9 kmh 30.24 in1024.0 mb 0.00 in0.0 mm 0.00 in0.0 mm 0.00 in0.0 mm
02:45 AM 52.9°F11.6°C 48.8°F9.3°C 86% 3.8 mph W6.1 kmh W 9.6 mph15.4 kmh 30.24 in1024.0 mb 0.00 in0.0 mm 0.00 in0.0 mm 0.00 in0.0 mm
02:40 AM 53.2°F11.8°C 49.2°F9.6°C 86% 4.0 mph W6.4 kmh W 10.5 mph16.9 kmh 30.24 in1024.0 mb 0.00 in0.0 mm 0.00 in0.0 mm 0.00 in0.0 mm
02:35 AM 53.1°F11.7°C 49.0°F9.4°C 86% 4.3 mph W6.9 kmh W 10.5 mph16.9 kmh 30.25 in1024.4 mb 0.00 in0.0 mm 0.00 in0.0 mm 0.00 in0.0 mm
02:30 AM 53.2°F11.8°C 49.2°F9.6°C 86% 4.9 mph W7.9 kmh W 10.3 mph16.6 kmh 30.25 in1024.4 mb 0.00 in0.0 mm 0.00 in0.0 mm 0.00 in0.0 mm
02:25 AM 53.2°F11.8°C 49.2°F9.6°C 86% 6.0 mph W9.7 kmh W 12.1 mph19.5 kmh 30.25 in1024.4 mb 0.00 in0.0 mm 0.00 in0.0 mm 0.00 in0.0 mm
02:20 AM 53.2°F11.8°C 48.8°F9.3°C 85% 5.7 mph W9.2 kmh W 12.1 mph19.5 kmh 30.24 in1024.0 mb 0.00 in0.0 mm 0.00 in0.0 mm 0.00 in0.0 mm
02:15 AM 53.2°F11.8°C 48.8°F9.3°C 85% 5.3 mph W8.5 kmh W 11.9 mph19.2 kmh 30.24 in1024.0 mb 0.00 in0.0 mm 0.00 in0.0 mm 0.00 in0.0 mm
02:10 AM 53.4°F11.9°C 49.0°F9.4°C 85% 5.8 mph WSW9.3 kmh WSW 14.5 mph23.3 kmh 30.24 in1024.0 mb 0.00 in0.0 mm 0.00 in0.0 mm 0.00 in0.0 mm
02:05 AM 53.4°F11.9°C 49.0°F9.4°C 85% 6.6 mph W10.6 kmh W 14.5 mph23.3 kmh 30.24 in1024.0 mb 0.00 in0.0 mm 0.00 in0.0 mm 0.00 in0.0 mm
02:01 AM 52.9°F11.6°C 48.5°F9.2°C 85% 6.0 mph WNW9.7 kmh WNW 6.0 mph9.7 kmh 30.24 in1024.0 mb 0.00 in0.0 mm 0.00 in0.0 mm 0.00 in0.0 mm
02:00 AM 53.4°F11.9°C 49.0°F9.4°C 85% 7.6 mph W12.2 kmh W 15.0 mph24.1 kmh 30.24 in1024.0 mb 0.00 in0.0 mm 0.00 in0.0 mm 0.00 in0.0 mm
01:55 AM 53.2°F11.8°C 48.8°F9.3°C 85% 6.1 mph WNW9.8 kmh WNW 13.4 mph21.6 kmh 30.24 in1024.0 mb 0.00 in0.0 mm 0.00 in0.0 mm 0.00 in0.0 mm
01:50 AM 53.2°F11.8°C 48.8°F9.3°C 85% 5.9 mph W9.5 kmh W 15.0 mph24.1 kmh 30.24 in1024.0 mb 0.00 in0.0 mm 0.00 in0.0 mm 0.00 in0.0 mm
01:45 AM 53.2°F11.8°C 48.8°F9.3°C 85% 7.0 mph W11.3 kmh W 17.2 mph27.7 kmh 30.24 in1024.0 mb 0.00 in0.0 mm 0.00 in0.0 mm 0.00 in0.0 mm
01:40 AM 53.1°F11.7°C 48.7°F9.3°C 85% 7.4 mph W11.9 kmh W 17.2 mph27.7 kmh 30.24 in1024.0 mb 0.00 in0.0 mm 0.00 in0.0 mm 0.00 in0.0 mm
01:35 AM 52.9°F11.6°C 48.5°F9.2°C 85% 6.3 mph W10.1 kmh W 15.4 mph24.8 kmh 30.23 in1023.7 mb 0.00 in0.0 mm 0.00 in0.0 mm 0.00 in0.0 mm
01:30 AM 52.9°F11.6°C 48.5°F9.2°C 85% 5.7 mph W9.2 kmh W 12.8 mph20.6 kmh 30.23 in1023.7 mb 0.00 in0.0 mm 0.00 in0.0 mm 0.00 in0.0 mm
01:25 AM 52.9°F11.6°C 48.5°F9.2°C 85% 6.2 mph WNW10.0 kmh WNW 12.8 mph20.6 kmh 30.24 in1024.0 mb 0.00 in0.0 mm 0.00 in0.0 mm 0.00 in0.0 mm
01:20 AM 52.9°F11.6°C 48.5°F9.2°C 85% 5.6 mph W9.0 kmh W 10.5 mph16.9 kmh 30.24 in1024.0 mb 0.00 in0.0 mm 0.00 in0.0 mm 0.00 in0.0 mm
01:15 AM 52.9°F11.6°C 48.2°F9.0°C 84% 4.5 mph W7.2 kmh W 10.5 mph16.9 kmh 30.24 in1024.0 mb 0.00 in0.0 mm 0.00 in0.0 mm 0.00 in0.0 mm
01:10 AM 52.9°F11.6°C 48.2°F9.0°C 84% 4.5 mph WNW7.2 kmh WNW 8.3 mph13.4 kmh 30.23 in1023.7 mb 0.00 in0.0 mm 0.00 in0.0 mm 0.00 in0.0 mm
01:05 AM 52.9°F11.6°C 48.2°F9.0°C 84% 5.0 mph WNW8.0 kmh WNW 8.3 mph13.4 kmh 30.23 in1023.7 mb 0.00 in0.0 mm 0.00 in0.0 mm 0.00 in0.0 mm
01:01 AM 53.4°F11.9°C 48.4°F9.1°C 83% 3.8 mph W6.1 kmh W 3.8 mph6.1 kmh 30.23 in1023.7 mb 0.00 in0.0 mm 0.00 in0.0 mm 0.00 in0.0 mm
01:00 AM 53.1°F11.7°C 48.4°F9.1°C 84% 5.3 mph W8.5 kmh W 10.3 mph16.6 kmh 30.24 in1024.0 mb 0.00 in0.0 mm 0.00 in0.0 mm 0.00 in0.0 mm
12:55 AM 53.2°F11.8°C 48.5°F9.2°C 84% 6.1 mph WNW9.8 kmh WNW 11.9 mph19.2 kmh 30.24 in1024.0 mb 0.00 in0.0 mm 0.00 in0.0 mm 0.00 in0.0 mm
12:50 AM 53.2°F11.8°C 48.2°F9.0°C 83% 5.8 mph WNW9.3 kmh WNW 11.9 mph19.2 kmh 30.24 in1024.0 mb 0.00 in0.0 mm 0.00 in0.0 mm 0.00 in0.0 mm
12:45 AM 53.2°F11.8°C 48.2°F9.0°C 83% 4.5 mph WNW7.2 kmh WNW 8.1 mph13.0 kmh 30.24 in1024.0 mb 0.00 in0.0 mm 0.00 in0.0 mm 0.00 in0.0 mm
12:40 AM 53.2°F11.8°C 48.5°F9.2°C 84% 4.6 mph WNW7.4 kmh WNW 11.0 mph17.7 kmh 30.23 in1023.7 mb 0.00 in0.0 mm 0.00 in0.0 mm 0.00 in0.0 mm
12:35 AM 53.4°F11.9°C 48.7°F9.3°C 84% 4.8 mph WNW7.7 kmh WNW 11.0 mph17.7 kmh 30.24 in1024.0 mb 0.00 in0.0 mm 0.00 in0.0 mm 0.00 in0.0 mm
12:30 AM 53.4°F11.9°C 48.7°F9.3°C 84% 5.1 mph W8.2 kmh W 10.5 mph16.9 kmh 30.24 in1024.0 mb 0.00 in0.0 mm 0.00 in0.0 mm 0.00 in0.0 mm
12:25 AM 53.4°F11.9°C 48.4°F9.1°C 83% 6.3 mph W10.1 kmh W 15.9 mph25.6 kmh 30.23 in1023.7 mb 0.00 in0.0 mm 0.00 in0.0 mm 0.00 in0.0 mm
12:20 AM 53.4°F11.9°C 48.4°F9.1°C 83% 7.4 mph W11.9 kmh W 15.9 mph25.6 kmh 30.24 in1024.0 mb 0.00 in0.0 mm 0.00 in0.0 mm 0.00 in0.0 mm
12:15 AM 53.8°F12.1°C 48.7°F9.3°C 83% 7.9 mph W12.7 kmh W 15.2 mph24.5 kmh 30.23 in1023.7 mb 0.00 in0.0 mm 0.00 in0.0 mm 0.00 in0.0 mm
12:10 AM 53.8°F12.1°C 48.7°F9.3°C 83% 8.4 mph W13.5 kmh W 15.9 mph25.6 kmh 30.24 in1024.0 mb 0.00 in0.0 mm 0.00 in0.0 mm 0.00 in0.0 mm
12:05 AM 53.8°F12.1°C 48.7°F9.3°C 83% 6.9 mph W11.1 kmh W 15.9 mph25.6 kmh 30.23 in1023.7 mb 0.00 in0.0 mm 0.00 in0.0 mm 0.00 in0.0 mm
12:00 AM 53.8°F12.1°C 48.7°F9.3°C 83% 6.5 mph W10.5 kmh W 12.3 mph19.8 kmh 30.23 in1023.7 mb 0.00 in0.0 mm 0.00 in0.0 mm 0.00 in0.0 mm